sensor_id;sensor_type;location;lat;lon;timestamp;P1;durP1;ratioP1;P2;durP2;ratioP2
8293;SDS011;4185;41.506;24.938;2022-11-13T00:00:03;20.17;;;11.90;;
8293;SDS011;4185;41.506;24.938;2022-11-13T00:02:31;22.67;;;12.70;;
8293;SDS011;4185;41.506;24.938;2022-11-13T00:04:58;20.70;;;12.57;;
8293;SDS011;4185;41.506;24.938;2022-11-13T00:07:26;23.40;;;13.83;;
8293;SDS011;4185;41.506;24.938;2022-11-13T00:09:53;20.67;;;13.00;;
8293;SDS011;4185;41.506;24.938;2022-11-13T00:12:19;18.00;;;11.83;;
8293;SDS011;4185;41.506;24.938;2022-11-13T00:14:48;21.87;;;13.93;;
8293;SDS011;4185;41.506;24.938;2022-11-13T00:17:14;21.77;;;13.57;;
8293;SDS011;4185;41.506;24.938;2022-11-13T00:19:41;21.37;;;13.47;;
8293;SDS011;4185;41.506;24.938;2022-11-13T00:22:08;20.20;;;12.80;;
8293;SDS011;4185;41.506;24.938;2022-11-13T00:24:35;20.23;;;13.30;;
8293;SDS011;4185;41.506;24.938;2022-11-13T00:27:01;20.73;;;13.30;;
8293;SDS011;4185;41.506;24.938;2022-11-13T00:29:28;24.60;;;13.93;;
8293;SDS011;4185;41.506;24.938;2022-11-13T00:31:57;23.77;;;14.20;;
8293;SDS011;4185;41.506;24.938;2022-11-13T00:34:24;22.43;;;13.57;;
8293;SDS011;4185;41.506;24.938;2022-11-13T00:36:51;24.07;;;14.97;;
8293;SDS011;4185;41.506;24.938;2022-11-13T00:39:17;21.70;;;13.07;;
8293;SDS011;4185;41.506;24.938;2022-11-13T00:41:44;20.60;;;13.67;;
8293;SDS011;4185;41.506;24.938;2022-11-13T00:44:11;24.20;;;14.40;;
8293;SDS011;4185;41.506;24.938;2022-11-13T00:46:38;21.70;;;13.33;;
8293;SDS011;4185;41.506;24.938;2022-11-13T00:49:06;22.80;;;13.87;;
8293;SDS011;4185;41.506;24.938;2022-11-13T00:51:33;24.67;;;13.13;;
8293;SDS011;4185;41.506;24.938;2022-11-13T00:54:01;19.10;;;12.33;;
8293;SDS011;4185;41.506;24.938;2022-11-13T00:56:27;19.80;;;12.70;;
8293;SDS011;4185;41.506;24.938;2022-11-13T00:58:54;21.67;;;12.90;;
8293;SDS011;4185;41.506;24.938;2022-11-13T01:01:21;20.97;;;12.93;;
8293;SDS011;4185;41.506;24.938;2022-11-13T01:03:48;19.47;;;11.93;;
8293;SDS011;4185;41.506;24.938;2022-11-13T01:06:17;22.77;;;13.20;;
8293;SDS011;4185;41.506;24.938;2022-11-13T01:08:46;23.10;;;14.50;;
8293;SDS011;4185;41.506;24.938;2022-11-13T01:11:15;23.47;;;14.17;;
8293;SDS011;4185;41.506;24.938;2022-11-13T01:13:44;18.40;;;12.23;;
8293;SDS011;4185;41.506;24.938;2022-11-13T01:16:13;20.03;;;11.97;;
8293;SDS011;4185;41.506;24.938;2022-11-13T01:18:41;16.57;;;11.40;;
8293;SDS011;4185;41.506;24.938;2022-11-13T01:21:10;19.93;;;11.60;;
8293;SDS011;4185;41.506;24.938;2022-11-13T01:23:39;21.47;;;13.17;;
8293;SDS011;4185;41.506;24.938;2022-11-13T01:26:07;21.40;;;12.87;;
8293;SDS011;4185;41.506;24.938;2022-11-13T01:28:35;19.30;;;12.77;;
8293;SDS011;4185;41.506;24.938;2022-11-13T01:31:04;17.93;;;12.23;;
8293;SDS011;4185;41.506;24.938;2022-11-13T01:33:31;18.07;;;11.90;;
8293;SDS011;4185;41.506;24.938;2022-11-13T01:35:59;20.80;;;13.50;;
8293;SDS011;4185;41.506;24.938;2022-11-13T01:38:27;38.13;;;19.80;;
8293;SDS011;4185;41.506;24.938;2022-11-13T01:40:55;37.97;;;20.10;;
8293;SDS011;4185;41.506;24.938;2022-11-13T01:43:23;40.27;;;21.90;;
8293;SDS011;4185;41.506;24.938;2022-11-13T01:46:01;27.07;;;15.70;;
8293;SDS011;4185;41.506;24.938;2022-11-13T01:48:33;36.80;;;19.93;;
8293;SDS011;4185;41.506;24.938;2022-11-13T01:51:06;44.20;;;25.20;;
8293;SDS011;4185;41.506;24.938;2022-11-13T01:53:38;28.53;;;16.40;;
8293;SDS011;4185;41.506;24.938;2022-11-13T01:56:10;19.30;;;12.47;;
8293;SDS011;4185;41.506;24.938;2022-11-13T01:58:37;25.53;;;16.17;;
8293;SDS011;4185;41.506;24.938;2022-11-13T02:01:05;16.73;;;11.73;;
8293;SDS011;4185;41.506;24.938;2022-11-13T02:03:32;22.73;;;13.70;;
8293;SDS011;4185;41.506;24.938;2022-11-13T02:05:59;18.73;;;12.17;;
8293;SDS011;4185;41.506;24.938;2022-11-13T02:08:26;20.07;;;11.67;;
8293;SDS011;4185;41.506;24.938;2022-11-13T02:10:54;17.83;;;11.60;;
8293;SDS011;4185;41.506;24.938;2022-11-13T02:13:22;17.40;;;11.77;;
8293;SDS011;4185;41.506;24.938;2022-11-13T02:15:50;19.10;;;12.37;;
8293;SDS011;4185;41.506;24.938;2022-11-13T02:18:18;19.03;;;12.83;;
8293;SDS011;4185;41.506;24.938;2022-11-13T02:20:49;20.53;;;12.50;;
8293;SDS011;4185;41.506;24.938;2022-11-13T02:23:24;17.17;;;11.17;;
8293;SDS011;4185;41.506;24.938;2022-11-13T02:26:02;19.17;;;13.03;;
8293;SDS011;4185;41.506;24.938;2022-11-13T02:28:30;19.03;;;12.67;;
8293;SDS011;4185;41.506;24.938;2022-11-13T02:30:57;22.43;;;12.50;;
8293;SDS011;4185;41.506;24.938;2022-11-13T02:33:32;18.30;;;11.30;;
8293;SDS011;4185;41.506;24.938;2022-11-13T02:35:58;19.07;;;11.00;;
8293;SDS011;4185;41.506;24.938;2022-11-13T02:38:25;22.40;;;13.80;;
8293;SDS011;4185;41.506;24.938;2022-11-13T02:40:52;18.67;;;12.27;;
8293;SDS011;4185;41.506;24.938;2022-11-13T02:43:20;19.83;;;12.23;;
8293;SDS011;4185;41.506;24.938;2022-11-13T02:45:47;19.83;;;12.90;;
8293;SDS011;4185;41.506;24.938;2022-11-13T02:48:14;19.77;;;13.13;;
8293;SDS011;4185;41.506;24.938;2022-11-13T02:50:41;21.60;;;13.07;;
8293;SDS011;4185;41.506;24.938;2022-11-13T02:53:08;18.97;;;12.77;;
8293;SDS011;4185;41.506;24.938;2022-11-13T02:55:35;20.77;;;11.93;;
8293;SDS011;4185;41.506;24.938;2022-11-13T02:58:01;19.23;;;12.00;;
8293;SDS011;4185;41.506;24.938;2022-11-13T03:00:30;19.30;;;12.60;;
8293;SDS011;4185;41.506;24.938;2022-11-13T03:02:57;21.33;;;12.77;;
8293;SDS011;4185;41.506;24.938;2022-11-13T03:05:23;17.87;;;12.27;;
8293;SDS011;4185;41.506;24.938;2022-11-13T03:07:50;21.27;;;13.07;;
8293;SDS011;4185;41.506;24.938;2022-11-13T03:10:17;22.60;;;12.63;;
8293;SDS011;4185;41.506;24.938;2022-11-13T03:12:44;19.40;;;12.57;;
8293;SDS011;4185;41.506;24.938;2022-11-13T03:15:11;20.13;;;12.43;;
8293;SDS011;4185;41.506;24.938;2022-11-13T03:17:39;21.43;;;12.33;;
8293;SDS011;4185;41.506;24.938;2022-11-13T03:20:06;22.67;;;12.90;;
8293;SDS011;4185;41.506;24.938;2022-11-13T03:22:33;19.67;;;13.10;;
8293;SDS011;4185;41.506;24.938;2022-11-13T03:25:00;23.27;;;13.90;;
8293;SDS011;4185;41.506;24.938;2022-11-13T03:27:28;22.00;;;13.63;;
8293;SDS011;4185;41.506;24.938;2022-11-13T03:29:56;18.43;;;12.23;;
8293;SDS011;4185;41.506;24.938;2022-11-13T03:32:23;20.40;;;12.60;;
8293;SDS011;4185;41.506;24.938;2022-11-13T03:34:51;20.33;;;12.27;;
8293;SDS011;4185;41.506;24.938;2022-11-13T03:37:17;21.37;;;12.53;;
8293;SDS011;4185;41.506;24.938;2022-11-13T03:39:44;18.23;;;10.47;;
8293;SDS011;4185;41.506;24.938;2022-11-13T03:42:11;19.50;;;12.10;;
8293;SDS011;4185;41.506;24.938;2022-11-13T03:44:38;21.70;;;13.43;;
8293;SDS011;4185;41.506;24.938;2022-11-13T03:47:05;18.90;;;11.20;;
8293;SDS011;4185;41.506;24.938;2022-11-13T03:49:31;20.10;;;12.07;;
8293;SDS011;4185;41.506;24.938;2022-11-13T03:52:00;17.37;;;11.27;;
8293;SDS011;4185;41.506;24.938;2022-11-13T03:54:26;19.27;;;11.20;;
8293;SDS011;4185;41.506;24.938;2022-11-13T03:56:53;24.13;;;13.70;;
8293;SDS011;4185;41.506;24.938;2022-11-13T03:59:20;22.17;;;12.87;;
8293;SDS011;4185;41.506;24.938;2022-11-13T04:01:47;17.63;;;11.20;;
8293;SDS011;4185;41.506;24.938;2022-11-13T04:04:14;24.37;;;15.40;;
8293;SDS011;4185;41.506;24.938;2022-11-13T04:06:41;23.63;;;14.97;;
8293;SDS011;4185;41.506;24.938;2022-11-13T04:09:09;24.00;;;14.13;;
8293;SDS011;4185;41.506;24.938;2022-11-13T04:11:36;23.90;;;13.93;;
8293;SDS011;4185;41.506;24.938;2022-11-13T04:14:03;21.03;;;13.50;;
8293;SDS011;4185;41.506;24.938;2022-11-13T04:16:29;27.23;;;15.00;;
8293;SDS011;4185;41.506;24.938;2022-11-13T04:18:56;24.13;;;14.50;;
8293;SDS011;4185;41.506;24.938;2022-11-13T04:21:23;26.13;;;15.17;;
8293;SDS011;4185;41.506;24.938;2022-11-13T04:23:51;28.00;;;14.33;;
8293;SDS011;4185;41.506;24.938;2022-11-13T04:26:20;24.50;;;15.20;;
8293;SDS011;4185;41.506;24.938;2022-11-13T04:28:47;25.17;;;14.80;;
8293;SDS011;4185;41.506;24.938;2022-11-13T04:31:13;23.33;;;13.83;;
8293;SDS011;4185;41.506;24.938;2022-11-13T04:33:40;26.20;;;14.37;;
8293;SDS011;4185;41.506;24.938;2022-11-13T04:36:07;29.20;;;16.37;;
8293;SDS011;4185;41.506;24.938;2022-11-13T04:38:34;26.17;;;16.47;;
8293;SDS011;4185;41.506;24.938;2022-11-13T04:41:01;24.40;;;15.30;;
8293;SDS011;4185;41.506;24.938;2022-11-13T04:43:46;26.53;;;16.23;;
8293;SDS011;4185;41.506;24.938;2022-11-13T04:46:13;24.37;;;15.00;;
8293;SDS011;4185;41.506;24.938;2022-11-13T04:48:40;30.60;;;17.00;;
8293;SDS011;4185;41.506;24.938;2022-11-13T04:51:07;24.90;;;15.47;;
8293;SDS011;4185;41.506;24.938;2022-11-13T04:53:34;25.90;;;15.40;;
8293;SDS011;4185;41.506;24.938;2022-11-13T04:56:00;25.87;;;15.43;;
8293;SDS011;4185;41.506;24.938;2022-11-13T04:58:27;25.30;;;16.03;;
8293;SDS011;4185;41.506;24.938;2022-11-13T05:00:56;29.03;;;18.13;;
8293;SDS011;4185;41.506;24.938;2022-11-13T05:03:22;26.43;;;16.60;;
8293;SDS011;4185;41.506;24.938;2022-11-13T05:05:49;24.63;;;14.50;;
8293;SDS011;4185;41.506;24.938;2022-11-13T05:08:16;26.87;;;15.33;;
8293;SDS011;4185;41.506;24.938;2022-11-13T05:10:43;26.73;;;16.30;;
8293;SDS011;4185;41.506;24.938;2022-11-13T05:13:09;31.33;;;19.13;;
8293;SDS011;4185;41.506;24.938;2022-11-13T05:15:36;33.53;;;20.23;;
8293;SDS011;4185;41.506;24.938;2022-11-13T05:18:04;37.17;;;22.00;;
8293;SDS011;4185;41.506;24.938;2022-11-13T05:20:31;36.90;;;23.23;;
8293;SDS011;4185;41.506;24.938;2022-11-13T05:22:58;36.97;;;22.03;;
8293;SDS011;4185;41.506;24.938;2022-11-13T05:25:25;42.63;;;23.53;;
8293;SDS011;4185;41.506;24.938;2022-11-13T05:27:52;42.97;;;23.97;;
8293;SDS011;4185;41.506;24.938;2022-11-13T05:30:18;35.90;;;20.53;;
8293;SDS011;4185;41.506;24.938;2022-11-13T05:32:45;37.77;;;20.90;;
8293;SDS011;4185;41.506;24.938;2022-11-13T05:35:14;35.80;;;20.60;;
8293;SDS011;4185;41.506;24.938;2022-11-13T05:37:40;30.53;;;17.77;;
8293;SDS011;4185;41.506;24.938;2022-11-13T05:40:08;25.40;;;15.97;;
8293;SDS011;4185;41.506;24.938;2022-11-13T05:42:36;35.00;;;18.63;;
8293;SDS011;4185;41.506;24.938;2022-11-13T05:45:02;34.00;;;20.83;;
8293;SDS011;4185;41.506;24.938;2022-11-13T05:47:31;36.07;;;20.37;;
8293;SDS011;4185;41.506;24.938;2022-11-13T05:49:58;49.03;;;27.40;;
8293;SDS011;4185;41.506;24.938;2022-11-13T05:52:26;95.70;;;39.17;;
8293;SDS011;4185;41.506;24.938;2022-11-13T05:54:53;85.53;;;33.27;;
8293;SDS011;4185;41.506;24.938;2022-11-13T05:57:20;40.03;;;25.23;;
8293;SDS011;4185;41.506;24.938;2022-11-13T05:59:46;32.23;;;19.70;;
8293;SDS011;4185;41.506;24.938;2022-11-13T06:02:13;34.47;;;21.23;;
8293;SDS011;4185;41.506;24.938;2022-11-13T06:04:40;32.83;;;19.50;;
8293;SDS011;4185;41.506;24.938;2022-11-13T06:07:07;30.77;;;18.80;;
8293;SDS011;4185;41.506;24.938;2022-11-13T06:09:35;40.97;;;24.13;;
8293;SDS011;4185;41.506;24.938;2022-11-13T06:12:02;44.70;;;26.77;;
8293;SDS011;4185;41.506;24.938;2022-11-13T06:14:29;33.77;;;20.67;;
8293;SDS011;4185;41.506;24.938;2022-11-13T06:16:56;32.50;;;19.30;;
8293;SDS011;4185;41.506;24.938;2022-11-13T06:19:23;33.73;;;18.87;;
8293;SDS011;4185;41.506;24.938;2022-11-13T06:21:50;37.83;;;21.73;;
8293;SDS011;4185;41.506;24.938;2022-11-13T06:24:16;30.70;;;17.57;;
8293;SDS011;4185;41.506;24.938;2022-11-13T06:26:45;29.67;;;17.93;;
8293;SDS011;4185;41.506;24.938;2022-11-13T06:29:12;41.63;;;24.87;;
8293;SDS011;4185;41.506;24.938;2022-11-13T06:31:38;43.53;;;24.73;;
8293;SDS011;4185;41.506;24.938;2022-11-13T06:34:05;39.83;;;21.93;;
8293;SDS011;4185;41.506;24.938;2022-11-13T06:36:33;33.10;;;19.23;;
8293;SDS011;4185;41.506;24.938;2022-11-13T06:39:04;28.57;;;16.70;;
8293;SDS011;4185;41.506;24.938;2022-11-13T06:41:32;29.37;;;17.77;;
8293;SDS011;4185;41.506;24.938;2022-11-13T06:44:00;28.87;;;18.53;;
8293;SDS011;4185;41.506;24.938;2022-11-13T06:46:27;46.93;;;26.33;;
8293;SDS011;4185;41.506;24.938;2022-11-13T06:48:55;43.83;;;25.07;;
8293;SDS011;4185;41.506;24.938;2022-11-13T06:51:23;44.00;;;23.60;;
8293;SDS011;4185;41.506;24.938;2022-11-13T06:53:51;38.80;;;21.80;;
8293;SDS011;4185;41.506;24.938;2022-11-13T06:56:18;34.20;;;19.60;;
8293;SDS011;4185;41.506;24.938;2022-11-13T06:58:45;30.87;;;18.10;;
8293;SDS011;4185;41.506;24.938;2022-11-13T07:01:15;31.23;;;17.37;;
8293;SDS011;4185;41.506;24.938;2022-11-13T07:03:43;25.50;;;15.13;;
8293;SDS011;4185;41.506;24.938;2022-11-13T07:06:12;24.73;;;15.37;;
8293;SDS011;4185;41.506;24.938;2022-11-13T07:08:41;23.53;;;13.90;;
8293;SDS011;4185;41.506;24.938;2022-11-13T07:11:08;22.90;;;14.77;;
8293;SDS011;4185;41.506;24.938;2022-11-13T07:13:37;24.93;;;15.27;;
8293;SDS011;4185;41.506;24.938;2022-11-13T07:16:05;24.50;;;15.63;;
8293;SDS011;4185;41.506;24.938;2022-11-13T07:18:34;20.73;;;12.13;;
8293;SDS011;4185;41.506;24.938;2022-11-13T07:21:02;29.80;;;16.33;;
8293;SDS011;4185;41.506;24.938;2022-11-13T07:23:31;24.47;;;12.40;;
8293;SDS011;4185;41.506;24.938;2022-11-13T07:25:58;21.03;;;12.87;;
8293;SDS011;4185;41.506;24.938;2022-11-13T07:28:25;17.50;;;11.80;;
8293;SDS011;4185;41.506;24.938;2022-11-13T07:30:52;14.80;;;10.57;;
8293;SDS011;4185;41.506;24.938;2022-11-13T07:33:19;18.50;;;12.70;;
8293;SDS011;4185;41.506;24.938;2022-11-13T07:35:47;19.00;;;11.87;;
8293;SDS011;4185;41.506;24.938;2022-11-13T07:38:14;34.67;;;20.17;;
8293;SDS011;4185;41.506;24.938;2022-11-13T07:40:41;17.67;;;11.73;;
8293;SDS011;4185;41.506;24.938;2022-11-13T07:43:08;22.37;;;13.00;;
8293;SDS011;4185;41.506;24.938;2022-11-13T07:45:34;18.40;;;11.40;;
8293;SDS011;4185;41.506;24.938;2022-11-13T07:48:01;19.33;;;11.87;;
8293;SDS011;4185;41.506;24.938;2022-11-13T07:50:29;16.40;;;12.00;;
8293;SDS011;4185;41.506;24.938;2022-11-13T07:53:00;18.90;;;11.07;;
8293;SDS011;4185;41.506;24.938;2022-11-13T07:55:29;19.73;;;10.80;;
8293;SDS011;4185;41.506;24.938;2022-11-13T07:57:58;18.50;;;12.43;;
8293;SDS011;4185;41.506;24.938;2022-11-13T08:00:26;18.63;;;11.37;;
8293;SDS011;4185;41.506;24.938;2022-11-13T08:02:55;18.27;;;11.83;;
8293;SDS011;4185;41.506;24.938;2022-11-13T08:05:22;18.30;;;11.57;;
8293;SDS011;4185;41.506;24.938;2022-11-13T08:07:49;17.13;;;11.03;;
8293;SDS011;4185;41.506;24.938;2022-11-13T08:10:18;17.97;;;11.17;;
8293;SDS011;4185;41.506;24.938;2022-11-13T08:12:45;20.47;;;12.03;;
8293;SDS011;4185;41.506;24.938;2022-11-13T08:15:13;17.67;;;11.00;;
8293;SDS011;4185;41.506;24.938;2022-11-13T08:17:39;18.83;;;11.20;;
8293;SDS011;4185;41.506;24.938;2022-11-13T08:20:07;18.93;;;12.30;;
8293;SDS011;4185;41.506;24.938;2022-11-13T08:22:34;18.43;;;11.03;;
8293;SDS011;4185;41.506;24.938;2022-11-13T08:25:01;18.60;;;11.53;;
8293;SDS011;4185;41.506;24.938;2022-11-13T08:27:30;17.40;;;11.30;;
8293;SDS011;4185;41.506;24.938;2022-11-13T08:29:56;18.33;;;11.97;;
8293;SDS011;4185;41.506;24.938;2022-11-13T08:32:23;19.17;;;11.97;;
8293;SDS011;4185;41.506;24.938;2022-11-13T08:34:50;16.73;;;10.43;;
8293;SDS011;4185;41.506;24.938;2022-11-13T08:37:17;21.07;;;11.30;;
8293;SDS011;4185;41.506;24.938;2022-11-13T08:39:44;16.87;;;11.00;;
8293;SDS011;4185;41.506;24.938;2022-11-13T08:42:10;16.63;;;11.13;;
8293;SDS011;4185;41.506;24.938;2022-11-13T08:44:39;19.13;;;11.37;;
8293;SDS011;4185;41.506;24.938;2022-11-13T08:47:05;19.47;;;11.30;;
8293;SDS011;4185;41.506;24.938;2022-11-13T08:49:32;16.87;;;10.50;;
8293;SDS011;4185;41.506;24.938;2022-11-13T08:51:59;14.17;;;10.10;;
8293;SDS011;4185;41.506;24.938;2022-11-13T08:54:26;17.07;;;11.03;;
8293;SDS011;4185;41.506;24.938;2022-11-13T08:56:53;16.20;;;11.17;;
8293;SDS011;4185;41.506;24.938;2022-11-13T08:59:20;16.60;;;11.07;;
8293;SDS011;4185;41.506;24.938;2022-11-13T09:01:49;18.53;;;10.77;;
8293;SDS011;4185;41.506;24.938;2022-11-13T09:04:22;14.43;;;10.13;;
8293;SDS011;4185;41.506;24.938;2022-11-13T09:06:49;15.23;;;10.37;;
8293;SDS011;4185;41.506;24.938;2022-11-13T09:09:16;16.27;;;10.93;;
8293;SDS011;4185;41.506;24.938;2022-11-13T09:11:43;19.57;;;10.87;;
8293;SDS011;4185;41.506;24.938;2022-11-13T09:14:13;15.53;;;10.00;;
8293;SDS011;4185;41.506;24.938;2022-11-13T09:16:40;15.17;;;10.17;;
8293;SDS011;4185;41.506;24.938;2022-11-13T09:19:08;15.27;;;9.53;;
8293;SDS011;4185;41.506;24.938;2022-11-13T09:21:35;16.30;;;9.80;;
8293;SDS011;4185;41.506;24.938;2022-11-13T09:24:02;14.80;;;10.03;;
8293;SDS011;4185;41.506;24.938;2022-11-13T09:26:29;15.40;;;9.63;;
8293;SDS011;4185;41.506;24.938;2022-11-13T09:28:55;19.50;;;10.50;;
8293;SDS011;4185;41.506;24.938;2022-11-13T09:31:22;12.73;;;8.90;;
8293;SDS011;4185;41.506;24.938;2022-11-13T09:33:49;15.37;;;10.00;;
8293;SDS011;4185;41.506;24.938;2022-11-13T09:36:17;15.23;;;9.47;;
8293;SDS011;4185;41.506;24.938;2022-11-13T09:38:44;26.17;;;14.57;;
8293;SDS011;4185;41.506;24.938;2022-11-13T09:41:12;15.83;;;10.83;;
8293;SDS011;4185;41.506;24.938;2022-11-13T09:43:44;21.17;;;12.70;;
8293;SDS011;4185;41.506;24.938;2022-11-13T09:46:17;17.70;;;10.27;;
8293;SDS011;4185;41.506;24.938;2022-11-13T09:48:48;14.10;;;9.37;;
8293;SDS011;4185;41.506;24.938;2022-11-13T09:51:21;14.97;;;9.80;;
8293;SDS011;4185;41.506;24.938;2022-11-13T09:53:53;13.03;;;9.67;;
8293;SDS011;4185;41.506;24.938;2022-11-13T09:56:24;13.80;;;8.97;;
8293;SDS011;4185;41.506;24.938;2022-11-13T09:59:06;16.40;;;10.67;;
8293;SDS011;4185;41.506;24.938;2022-11-13T10:01:48;14.67;;;10.53;;
8293;SDS011;4185;41.506;24.938;2022-11-13T10:04:23;14.43;;;9.40;;
8293;SDS011;4185;41.506;24.938;2022-11-13T10:07:01;13.90;;;8.97;;
8293;SDS011;4185;41.506;24.938;2022-11-13T10:09:43;13.20;;;9.17;;
8293;SDS011;4185;41.506;24.938;2022-11-13T10:12:21;13.63;;;9.50;;
8293;SDS011;4185;41.506;24.938;2022-11-13T10:14:49;13.03;;;8.70;;
8293;SDS011;4185;41.506;24.938;2022-11-13T10:17:20;12.63;;;9.00;;
8293;SDS011;4185;41.506;24.938;2022-11-13T10:19:51;12.00;;;8.70;;
8293;SDS011;4185;41.506;24.938;2022-11-13T10:22:25;13.10;;;8.97;;
8293;SDS011;4185;41.506;24.938;2022-11-13T10:24:57;14.00;;;9.17;;
8293;SDS011;4185;41.506;24.938;2022-11-13T10:27:28;17.30;;;9.40;;
8293;SDS011;4185;41.506;24.938;2022-11-13T10:29:55;14.13;;;9.07;;
8293;SDS011;4185;41.506;24.938;2022-11-13T10:32:23;13.13;;;9.40;;
8293;SDS011;4185;41.506;24.938;2022-11-13T10:34:52;14.97;;;9.67;;
8293;SDS011;4185;41.506;24.938;2022-11-13T10:37:38;16.47;;;9.97;;
8293;SDS011;4185;41.506;24.938;2022-11-13T10:40:22;14.67;;;9.97;;
8293;SDS011;4185;41.506;24.938;2022-11-13T10:42:49;13.53;;;9.83;;
8293;SDS011;4185;41.506;24.938;2022-11-13T10:45:17;15.57;;;9.93;;
8293;SDS011;4185;41.506;24.938;2022-11-13T10:47:46;15.40;;;9.77;;
8293;SDS011;4185;41.506;24.938;2022-11-13T10:50:18;15.40;;;10.47;;
8293;SDS011;4185;41.506;24.938;2022-11-13T10:52:49;13.70;;;9.77;;
8293;SDS011;4185;41.506;24.938;2022-11-13T10:55:20;12.37;;;9.80;;
8293;SDS011;4185;41.506;24.938;2022-11-13T10:57:54;16.63;;;10.50;;
8293;SDS011;4185;41.506;24.938;2022-11-13T11:00:23;15.07;;;10.50;;
8293;SDS011;4185;41.506;24.938;2022-11-13T11:02:55;16.40;;;10.33;;
8293;SDS011;4185;41.506;24.938;2022-11-13T11:05:22;15.97;;;11.40;;
8293;SDS011;4185;41.506;24.938;2022-11-13T11:07:52;14.27;;;10.47;;
8293;SDS011;4185;41.506;24.938;2022-11-13T11:10:21;15.40;;;10.73;;
8293;SDS011;4185;41.506;24.938;2022-11-13T11:12:58;14.03;;;9.80;;
8293;SDS011;4185;41.506;24.938;2022-11-13T11:15:37;16.53;;;11.57;;
8293;SDS011;4185;41.506;24.938;2022-11-13T11:18:12;14.33;;;10.43;;
8293;SDS011;4185;41.506;24.938;2022-11-13T11:20:48;16.90;;;11.10;;
8293;SDS011;4185;41.506;24.938;2022-11-13T11:23:24;15.00;;;10.23;;
8293;SDS011;4185;41.506;24.938;2022-11-13T11:25:57;15.63;;;10.43;;
8293;SDS011;4185;41.506;24.938;2022-11-13T11:28:30;15.20;;;10.27;;
8293;SDS011;4185;41.506;24.938;2022-11-13T11:31:04;15.33;;;10.73;;
8293;SDS011;4185;41.506;24.938;2022-11-13T11:33:41;14.83;;;10.67;;
8293;SDS011;4185;41.506;24.938;2022-11-13T11:36:19;15.77;;;9.87;;
8293;SDS011;4185;41.506;24.938;2022-11-13T11:38:53;17.83;;;10.87;;
8293;SDS011;4185;41.506;24.938;2022-11-13T11:41:26;13.50;;;9.73;;
8293;SDS011;4185;41.506;24.938;2022-11-13T11:44:00;15.57;;;9.70;;
8293;SDS011;4185;41.506;24.938;2022-11-13T11:46:35;13.93;;;9.77;;
8293;SDS011;4185;41.506;24.938;2022-11-13T11:49:02;15.87;;;10.73;;
8293;SDS011;4185;41.506;24.938;2022-11-13T11:51:29;13.80;;;9.90;;
8293;SDS011;4185;41.506;24.938;2022-11-13T11:54:02;14.47;;;10.57;;
8293;SDS011;4185;41.506;24.938;2022-11-13T11:56:51;15.43;;;11.07;;
8293;SDS011;4185;41.506;24.938;2022-11-13T11:59:23;15.97;;;11.07;;
8293;SDS011;4185;41.506;24.938;2022-11-13T12:02:03;14.87;;;11.13;;
8293;SDS011;4185;41.506;24.938;2022-11-13T12:04:53;15.93;;;11.57;;
8293;SDS011;4185;41.506;24.938;2022-11-13T12:07:33;14.67;;;10.83;;
8293;SDS011;4185;41.506;24.938;2022-11-13T12:10:11;15.67;;;12.23;;
8293;SDS011;4185;41.506;24.938;2022-11-13T12:12:50;17.17;;;11.30;;
8293;SDS011;4185;41.506;24.938;2022-11-13T12:15:30;17.43;;;12.23;;
8293;SDS011;4185;41.506;24.938;2022-11-13T12:18:07;17.83;;;11.73;;
8293;SDS011;4185;41.506;24.938;2022-11-13T12:20:45;19.97;;;13.03;;
8293;SDS011;4185;41.506;24.938;2022-11-13T12:23:24;15.93;;;11.33;;
8293;SDS011;4185;41.506;24.938;2022-11-13T12:26:01;17.07;;;12.20;;
8293;SDS011;4185;41.506;24.938;2022-11-13T12:28:31;17.80;;;12.07;;
8293;SDS011;4185;41.506;24.938;2022-11-13T12:31:08;17.73;;;11.70;;
8293;SDS011;4185;41.506;24.938;2022-11-13T12:33:43;15.53;;;11.73;;
8293;SDS011;4185;41.506;24.938;2022-11-13T12:36:15;18.70;;;12.97;;
8293;SDS011;4185;41.506;24.938;2022-11-13T12:38:44;18.93;;;12.17;;
8293;SDS011;4185;41.506;24.938;2022-11-13T12:41:22;18.10;;;12.83;;
8293;SDS011;4185;41.506;24.938;2022-11-13T12:43:58;18.27;;;12.47;;
8293;SDS011;4185;41.506;24.938;2022-11-13T12:46:39;18.87;;;12.33;;
8293;SDS011;4185;41.506;24.938;2022-11-13T12:49:25;20.00;;;13.57;;
8293;SDS011;4185;41.506;24.938;2022-11-13T12:51:57;16.77;;;12.30;;
8293;SDS011;4185;41.506;24.938;2022-11-13T12:54:29;18.13;;;13.53;;
8293;SDS011;4185;41.506;24.938;2022-11-13T12:57:14;15.53;;;12.77;;
8293;SDS011;4185;41.506;24.938;2022-11-13T12:59:44;15.00;;;12.23;;
8293;SDS011;4185;41.506;24.938;2022-11-13T13:05:22;15.93;;;13.00;;
8293;SDS011;4185;41.506;24.938;2022-11-13T13:08:21;15.53;;;12.90;;
8293;SDS011;4185;41.506;24.938;2022-11-13T13:11:13;13.47;;;12.10;;
8293;SDS011;4185;41.506;24.938;2022-11-13T13:13:46;14.00;;;12.57;;
8293;SDS011;4185;41.506;24.938;2022-11-13T13:16:22;15.83;;;12.77;;
8293;SDS011;4185;41.506;24.938;2022-11-13T13:18:51;15.27;;;13.20;;
8293;SDS011;4185;41.506;24.938;2022-11-13T13:21:18;17.77;;;14.98;;
8293;SDS011;4185;41.506;24.938;2022-11-13T13:23:46;17.90;;;15.07;;
8293;SDS011;4185;41.506;24.938;2022-11-13T13:26:16;18.20;;;13.05;;
8293;SDS011;4185;41.506;24.938;2022-11-13T13:28:48;15.10;;;13.35;;
8293;SDS011;4185;41.506;24.938;2022-11-13T13:31:27;16.60;;;13.35;;
8293;SDS011;4185;41.506;24.938;2022-11-13T13:34:04;15.40;;;12.73;;
8293;SDS011;4185;41.506;24.938;2022-11-13T13:36:56;14.17;;;11.90;;
8293;SDS011;4185;41.506;24.938;2022-11-13T13:39:33;17.13;;;12.07;;
8293;SDS011;4185;41.506;24.938;2022-11-13T13:42:09;15.07;;;12.33;;
8293;SDS011;4185;41.506;24.938;2022-11-13T13:44:49;14.63;;;11.40;;
8293;SDS011;4185;41.506;24.938;2022-11-13T13:47:26;16.10;;;12.27;;
8293;SDS011;4185;41.506;24.938;2022-11-13T13:49:56;18.13;;;12.40;;
8293;SDS011;4185;41.506;24.938;2022-11-13T13:52:25;16.50;;;11.53;;
8293;SDS011;4185;41.506;24.938;2022-11-13T13:54:55;16.60;;;12.37;;
8293;SDS011;4185;41.506;24.938;2022-11-13T13:57:23;16.67;;;11.73;;
8293;SDS011;4185;41.506;24.938;2022-11-13T13:59:53;17.47;;;11.97;;
8293;SDS011;4185;41.506;24.938;2022-11-13T14:02:21;20.40;;;13.23;;
8293;SDS011;4185;41.506;24.938;2022-11-13T14:04:49;18.67;;;12.60;;
8293;SDS011;4185;41.506;24.938;2022-11-13T14:07:19;21.10;;;13.30;;
8293;SDS011;4185;41.506;24.938;2022-11-13T14:09:48;21.77;;;13.40;;
8293;SDS011;4185;41.506;24.938;2022-11-13T14:12:28;17.67;;;12.23;;
8293;SDS011;4185;41.506;24.938;2022-11-13T14:14:57;16.70;;;11.77;;
8293;SDS011;4185;41.506;24.938;2022-11-13T14:17:23;22.20;;;14.03;;
8293;SDS011;4185;41.506;24.938;2022-11-13T14:19:52;22.43;;;14.23;;
8293;SDS011;4185;41.506;24.938;2022-11-13T14:22:20;23.87;;;15.17;;
8293;SDS011;4185;41.506;24.938;2022-11-13T14:24:48;22.93;;;14.97;;
8293;SDS011;4185;41.506;24.938;2022-11-13T14:27:19;22.37;;;14.10;;
8293;SDS011;4185;41.506;24.938;2022-11-13T14:29:49;18.40;;;13.50;;
8293;SDS011;4185;41.506;24.938;2022-11-13T14:32:20;20.37;;;13.80;;
8293;SDS011;4185;41.506;24.938;2022-11-13T14:34:50;22.33;;;14.57;;
8293;SDS011;4185;41.506;24.938;2022-11-13T14:37:23;183.43;;;75.27;;
8293;SDS011;4185;41.506;24.938;2022-11-13T14:39:53;85.20;;;43.67;;
8293;SDS011;4185;41.506;24.938;2022-11-13T14:42:24;146.23;;;67.83;;
8293;SDS011;4185;41.506;24.938;2022-11-13T14:45:04;148.47;;;66.70;;
8293;SDS011;4185;41.506;24.938;2022-11-13T14:47:39;86.80;;;41.93;;
8293;SDS011;4185;41.506;24.938;2022-11-13T14:50:08;110.27;;;50.87;;
8293;SDS011;4185;41.506;24.938;2022-11-13T14:52:54;111.73;;;49.43;;